sensor_id;sensor_type;location;lat;lon;timestamp;P1;durP1;ratioP1;P2;durP2;ratioP2
18875;SDS011;9570;50.854;13.778;2022-09-01T00:02:03;2.77;;;2.43;;
18875;SDS011;9570;50.854;13.778;2022-09-01T00:04:32;2.97;;;2.20;;
18875;SDS011;9570;50.854;13.778;2022-09-01T00:07:05;4.23;;;2.50;;
18875;SDS011;9570;50.854;13.778;2022-09-01T00:09:31;5.27;;;2.60;;
18875;SDS011;9570;50.854;13.778;2022-09-01T00:11:57;2.93;;;2.27;;
18875;SDS011;9570;50.854;13.778;2022-09-01T00:14:25;2.80;;;2.47;;
18875;SDS011;9570;50.854;13.778;2022-09-01T00:16:53;2.57;;;2.37;;
18875;SDS011;9570;50.854;13.778;2022-09-01T00:19:20;4.20;;;2.30;;
18875;SDS011;9570;50.854;13.778;2022-09-01T00:21:46;3.10;;;2.50;;
18875;SDS011;9570;50.854;13.778;2022-09-01T00:24:12;5.80;;;2.40;;
18875;SDS011;9570;50.854;13.778;2022-09-01T00:26:39;8.57;;;2.30;;
18875;SDS011;9570;50.854;13.778;2022-09-01T00:29:04;3.70;;;1.90;;
18875;SDS011;9570;50.854;13.778;2022-09-01T00:31:30;3.00;;;2.50;;
18875;SDS011;9570;50.854;13.778;2022-09-01T00:33:56;3.03;;;2.17;;
18875;SDS011;9570;50.854;13.778;2022-09-01T00:36:22;3.53;;;2.30;;
18875;SDS011;9570;50.854;13.778;2022-09-01T00:38:48;3.13;;;2.47;;
18875;SDS011;9570;50.854;13.778;2022-09-01T00:41:14;3.13;;;2.40;;
18875;SDS011;9570;50.854;13.778;2022-09-01T00:46:17;2.37;;;2.03;;
18875;SDS011;9570;50.854;13.778;2022-09-01T00:48:55;6.27;;;2.30;;
18875;SDS011;9570;50.854;13.778;2022-09-01T00:51:26;2.63;;;2.33;;
18875;SDS011;9570;50.854;13.778;2022-09-01T00:53:52;4.13;;;2.23;;
18875;SDS011;9570;50.854;13.778;2022-09-01T00:56:19;7.30;;;2.30;;
18875;SDS011;9570;50.854;13.778;2022-09-01T00:58:46;3.67;;;2.40;;
18875;SDS011;9570;50.854;13.778;2022-09-01T01:01:12;3.80;;;2.50;;
18875;SDS011;9570;50.854;13.778;2022-09-01T01:03:38;3.73;;;2.40;;
18875;SDS011;9570;50.854;13.778;2022-09-01T01:06:08;2.50;;;2.20;;
18875;SDS011;9570;50.854;13.778;2022-09-01T01:08:39;2.60;;;2.40;;
18875;SDS011;9570;50.854;13.778;2022-09-01T01:11:14;2.57;;;2.10;;
18875;SDS011;9570;50.854;13.778;2022-09-01T01:13:55;3.60;;;2.03;;
18875;SDS011;9570;50.854;13.778;2022-09-01T01:16:36;2.40;;;2.03;;
18875;SDS011;9570;50.854;13.778;2022-09-01T01:19:07;2.60;;;2.40;;
18875;SDS011;9570;50.854;13.778;2022-09-01T01:22:16;5.33;;;2.30;;
18875;SDS011;9570;50.854;13.778;2022-09-01T01:25:10;5.43;;;2.30;;
18875;SDS011;9570;50.854;13.778;2022-09-01T01:27:36;5.67;;;2.43;;
18875;SDS011;9570;50.854;13.778;2022-09-01T01:30:07;3.00;;;2.00;;
18875;SDS011;9570;50.854;13.778;2022-09-01T01:32:35;3.80;;;2.27;;
18875;SDS011;9570;50.854;13.778;2022-09-01T01:35:01;3.93;;;2.50;;
18875;SDS011;9570;50.854;13.778;2022-09-01T01:37:29;4.17;;;2.30;;
18875;SDS011;9570;50.854;13.778;2022-09-01T01:39:59;3.57;;;2.30;;
18875;SDS011;9570;50.854;13.778;2022-09-01T01:42:24;4.20;;;2.80;;
18875;SDS011;9570;50.854;13.778;2022-09-01T01:44:51;3.97;;;2.47;;
18875;SDS011;9570;50.854;13.778;2022-09-01T01:47:18;5.63;;;2.37;;
18875;SDS011;9570;50.854;13.778;2022-09-01T01:49:44;3.43;;;2.00;;
18875;SDS011;9570;50.854;13.778;2022-09-01T01:52:10;4.47;;;2.60;;
18875;SDS011;9570;50.854;13.778;2022-09-01T01:54:41;2.60;;;2.20;;
18875;SDS011;9570;50.854;13.778;2022-09-01T01:57:09;5.97;;;2.23;;
18875;SDS011;9570;50.854;13.778;2022-09-01T01:59:36;2.80;;;2.30;;
18875;SDS011;9570;50.854;13.778;2022-09-01T02:02:04;3.63;;;2.10;;
18875;SDS011;9570;50.854;13.778;2022-09-01T02:04:32;2.77;;;2.50;;
18875;SDS011;9570;50.854;13.778;2022-09-01T02:06:58;4.80;;;2.40;;
18875;SDS011;9570;50.854;13.778;2022-09-01T02:09:23;3.30;;;2.40;;
18875;SDS011;9570;50.854;13.778;2022-09-01T02:11:49;2.20;;;2.00;;
18875;SDS011;9570;50.854;13.778;2022-09-01T02:14:21;2.50;;;2.30;;
18875;SDS011;9570;50.854;13.778;2022-09-01T02:16:47;3.70;;;2.17;;
18875;SDS011;9570;50.854;13.778;2022-09-01T02:19:13;2.80;;;2.23;;
18875;SDS011;9570;50.854;13.778;2022-09-01T02:21:43;3.40;;;2.30;;
18875;SDS011;9570;50.854;13.778;2022-09-01T02:24:19;2.70;;;1.90;;
18875;SDS011;9570;50.854;13.778;2022-09-01T02:26:46;2.90;;;2.23;;
18875;SDS011;9570;50.854;13.778;2022-09-01T02:29:14;3.00;;;2.37;;
18875;SDS011;9570;50.854;13.778;2022-09-01T02:31:43;2.50;;;2.30;;
18875;SDS011;9570;50.854;13.778;2022-09-01T02:34:10;5.60;;;2.27;;
18875;SDS011;9570;50.854;13.778;2022-09-01T02:36:38;3.07;;;2.27;;
18875;SDS011;9570;50.854;13.778;2022-09-01T02:39:14;9.80;;;2.20;;
18875;SDS011;9570;50.854;13.778;2022-09-01T02:41:43;8.00;;;2.57;;
18875;SDS011;9570;50.854;13.778;2022-09-01T02:44:09;6.93;;;2.13;;
18875;SDS011;9570;50.854;13.778;2022-09-01T02:46:39;3.93;;;2.40;;
18875;SDS011;9570;50.854;13.778;2022-09-01T02:49:07;4.33;;;2.47;;
18875;SDS011;9570;50.854;13.778;2022-09-01T02:51:39;2.80;;;2.10;;
18875;SDS011;9570;50.854;13.778;2022-09-01T02:54:05;3.30;;;2.40;;
18875;SDS011;9570;50.854;13.778;2022-09-01T02:56:31;3.47;;;2.70;;
18875;SDS011;9570;50.854;13.778;2022-09-01T02:58:57;2.47;;;2.27;;
18875;SDS011;9570;50.854;13.778;2022-09-01T03:01:27;2.50;;;2.27;;
18875;SDS011;9570;50.854;13.778;2022-09-01T03:03:55;4.00;;;2.50;;
18875;SDS011;9570;50.854;13.778;2022-09-01T03:06:23;3.03;;;2.43;;
18875;SDS011;9570;50.854;13.778;2022-09-01T03:08:50;2.47;;;2.27;;
18875;SDS011;9570;50.854;13.778;2022-09-01T03:11:17;4.37;;;2.60;;
18875;SDS011;9570;50.854;13.778;2022-09-01T03:13:43;3.27;;;2.27;;
18875;SDS011;9570;50.854;13.778;2022-09-01T03:16:10;4.50;;;2.33;;
18875;SDS011;9570;50.854;13.778;2022-09-01T03:18:36;4.33;;;2.20;;
18875;SDS011;9570;50.854;13.778;2022-09-01T03:21:02;4.63;;;2.50;;
18875;SDS011;9570;50.854;13.778;2022-09-01T03:23:29;4.10;;;2.33;;
18875;SDS011;9570;50.854;13.778;2022-09-01T03:25:57;4.40;;;2.63;;
18875;SDS011;9570;50.854;13.778;2022-09-01T03:28:23;3.47;;;2.37;;
18875;SDS011;9570;50.854;13.778;2022-09-01T03:30:51;3.00;;;2.70;;
18875;SDS011;9570;50.854;13.778;2022-09-01T03:33:18;2.20;;;2.00;;
18875;SDS011;9570;50.854;13.778;2022-09-01T03:35:46;2.87;;;2.40;;
18875;SDS011;9570;50.854;13.778;2022-09-01T03:38:12;2.53;;;2.23;;
18875;SDS011;9570;50.854;13.778;2022-09-01T03:40:44;6.77;;;2.50;;
18875;SDS011;9570;50.854;13.778;2022-09-01T03:43:11;4.20;;;2.43;;
18875;SDS011;9570;50.854;13.778;2022-09-01T03:45:37;5.90;;;2.27;;
18875;SDS011;9570;50.854;13.778;2022-09-01T03:48:05;3.60;;;2.63;;
18875;SDS011;9570;50.854;13.778;2022-09-01T03:50:33;2.97;;;2.10;;
18875;SDS011;9570;50.854;13.778;2022-09-01T03:53:05;3.40;;;2.07;;
18875;SDS011;9570;50.854;13.778;2022-09-01T03:55:32;6.00;;;2.37;;
18875;SDS011;9570;50.854;13.778;2022-09-01T03:58:00;4.07;;;2.83;;
18875;SDS011;9570;50.854;13.778;2022-09-01T04:00:30;3.73;;;2.20;;
18875;SDS011;9570;50.854;13.778;2022-09-01T04:03:00;2.60;;;2.40;;
18875;SDS011;9570;50.854;13.778;2022-09-01T04:05:28;2.90;;;2.50;;
18875;SDS011;9570;50.854;13.778;2022-09-01T04:07:58;4.27;;;2.60;;
18875;SDS011;9570;50.854;13.778;2022-09-01T04:10:28;3.90;;;2.60;;
18875;SDS011;9570;50.854;13.778;2022-09-01T04:12:58;4.07;;;2.50;;
18875;SDS011;9570;50.854;13.778;2022-09-01T04:15:25;5.10;;;2.63;;
18875;SDS011;9570;50.854;13.778;2022-09-01T04:17:51;6.20;;;2.77;;
18875;SDS011;9570;50.854;13.778;2022-09-01T04:20:37;3.97;;;2.60;;
18875;SDS011;9570;50.854;13.778;2022-09-01T04:23:13;3.23;;;2.93;;
18875;SDS011;9570;50.854;13.778;2022-09-01T04:25:50;2.80;;;2.60;;
18875;SDS011;9570;50.854;13.778;2022-09-01T04:28:18;2.90;;;2.70;;
18875;SDS011;9570;50.854;13.778;2022-09-01T04:30:56;4.47;;;2.70;;
18875;SDS011;9570;50.854;13.778;2022-09-01T04:33:26;6.07;;;3.03;;
18875;SDS011;9570;50.854;13.778;2022-09-01T04:36:00;5.90;;;3.27;;
18875;SDS011;9570;50.854;13.778;2022-09-01T04:38:27;5.07;;;2.60;;
18875;SDS011;9570;50.854;13.778;2022-09-01T04:40:53;5.13;;;2.57;;
18875;SDS011;9570;50.854;13.778;2022-09-01T04:43:21;2.87;;;2.63;;
18875;SDS011;9570;50.854;13.778;2022-09-01T04:45:47;3.70;;;2.50;;
18875;SDS011;9570;50.854;13.778;2022-09-01T04:48:16;4.80;;;2.70;;
18875;SDS011;9570;50.854;13.778;2022-09-01T04:50:43;3.83;;;2.87;;
18875;SDS011;9570;50.854;13.778;2022-09-01T04:53:08;5.47;;;2.57;;
18875;SDS011;9570;50.854;13.778;2022-09-01T04:55:37;4.17;;;2.80;;
18875;SDS011;9570;50.854;13.778;2022-09-01T04:58:07;5.37;;;2.77;;
18875;SDS011;9570;50.854;13.778;2022-09-01T05:00:33;4.33;;;2.87;;
18875;SDS011;9570;50.854;13.778;2022-09-01T05:02:59;3.80;;;3.10;;
18875;SDS011;9570;50.854;13.778;2022-09-01T05:05:35;5.93;;;3.03;;
18875;SDS011;9570;50.854;13.778;2022-09-01T05:08:04;3.57;;;2.70;;
18875;SDS011;9570;50.854;13.778;2022-09-01T05:10:30;11.20;;;2.83;;
18875;SDS011;9570;50.854;13.778;2022-09-01T05:12:58;3.13;;;2.83;;
18875;SDS011;9570;50.854;13.778;2022-09-01T05:15:25;4.07;;;3.00;;
18875;SDS011;9570;50.854;13.778;2022-09-01T05:17:51;4.43;;;3.07;;
18875;SDS011;9570;50.854;13.778;2022-09-01T05:20:19;2.90;;;2.60;;
18875;SDS011;9570;50.854;13.778;2022-09-01T05:22:45;2.73;;;2.53;;
18875;SDS011;9570;50.854;13.778;2022-09-01T05:25:11;2.80;;;2.50;;
18875;SDS011;9570;50.854;13.778;2022-09-01T05:27:38;5.10;;;2.70;;
18875;SDS011;9570;50.854;13.778;2022-09-01T05:30:05;4.57;;;2.77;;
18875;SDS011;9570;50.854;13.778;2022-09-01T05:32:32;4.43;;;3.47;;
18875;SDS011;9570;50.854;13.778;2022-09-01T05:35:01;3.47;;;2.93;;
18875;SDS011;9570;50.854;13.778;2022-09-01T05:37:30;3.80;;;3.17;;
18875;SDS011;9570;50.854;13.778;2022-09-01T05:39:56;6.43;;;3.23;;
18875;SDS011;9570;50.854;13.778;2022-09-01T05:42:22;4.27;;;2.53;;
18875;SDS011;9570;50.854;13.778;2022-09-01T05:44:48;3.70;;;3.00;;
18875;SDS011;9570;50.854;13.778;2022-09-01T05:47:14;3.83;;;2.60;;
18875;SDS011;9570;50.854;13.778;2022-09-01T05:49:40;2.83;;;2.43;;
18875;SDS011;9570;50.854;13.778;2022-09-01T05:52:05;5.60;;;2.63;;
18875;SDS011;9570;50.854;13.778;2022-09-01T05:54:33;3.17;;;2.57;;
18875;SDS011;9570;50.854;13.778;2022-09-01T05:56:59;3.37;;;2.30;;
18875;SDS011;9570;50.854;13.778;2022-09-01T05:59:25;3.93;;;2.53;;
18875;SDS011;9570;50.854;13.778;2022-09-01T06:01:55;4.10;;;2.20;;
18875;SDS011;9570;50.854;13.778;2022-09-01T06:04:21;2.47;;;2.27;;
18875;SDS011;9570;50.854;13.778;2022-09-01T06:06:47;2.97;;;2.30;;
18875;SDS011;9570;50.854;13.778;2022-09-01T06:09:14;3.43;;;2.17;;
18875;SDS011;9570;50.854;13.778;2022-09-01T06:11:42;4.27;;;2.27;;
18875;SDS011;9570;50.854;13.778;2022-09-01T06:14:11;3.60;;;2.10;;
18875;SDS011;9570;50.854;13.778;2022-09-01T06:16:39;3.70;;;3.03;;
18875;SDS011;9570;50.854;13.778;2022-09-01T06:19:05;5.10;;;4.23;;
18875;SDS011;9570;50.854;13.778;2022-09-01T06:21:30;7.03;;;4.97;;
18875;SDS011;9570;50.854;13.778;2022-09-01T06:23:56;5.13;;;3.37;;
18875;SDS011;9570;50.854;13.778;2022-09-01T06:26:27;4.57;;;3.70;;
18875;SDS011;9570;50.854;13.778;2022-09-01T06:28:55;4.33;;;3.60;;
18875;SDS011;9570;50.854;13.778;2022-09-01T06:31:24;4.60;;;3.67;;
18875;SDS011;9570;50.854;13.778;2022-09-01T06:33:52;5.03;;;4.53;;
18875;SDS011;9570;50.854;13.778;2022-09-01T06:36:20;5.87;;;4.80;;
18875;SDS011;9570;50.854;13.778;2022-09-01T06:38:47;6.63;;;4.80;;
18875;SDS011;9570;50.854;13.778;2022-09-01T06:41:16;6.80;;;4.00;;
18875;SDS011;9570;50.854;13.778;2022-09-01T06:43:43;5.30;;;3.30;;
18875;SDS011;9570;50.854;13.778;2022-09-01T06:46:13;5.23;;;3.80;;
18875;SDS011;9570;50.854;13.778;2022-09-01T06:48:39;5.10;;;3.87;;
18875;SDS011;9570;50.854;13.778;2022-09-01T06:51:10;3.27;;;2.70;;
18875;SDS011;9570;50.854;13.778;2022-09-01T06:53:36;4.93;;;2.70;;
18875;SDS011;9570;50.854;13.778;2022-09-01T06:56:02;8.87;;;2.80;;
18875;SDS011;9570;50.854;13.778;2022-09-01T06:58:27;4.97;;;2.60;;
18875;SDS011;9570;50.854;13.778;2022-09-01T07:00:54;4.23;;;2.57;;
18875;SDS011;9570;50.854;13.778;2022-09-01T07:03:20;2.63;;;2.40;;
18875;SDS011;9570;50.854;13.778;2022-09-01T07:05:47;3.30;;;2.57;;
18875;SDS011;9570;50.854;13.778;2022-09-01T07:08:15;2.23;;;2.03;;
18875;SDS011;9570;50.854;13.778;2022-09-01T07:10:44;3.40;;;2.17;;
18875;SDS011;9570;50.854;13.778;2022-09-01T07:13:12;5.07;;;2.27;;
18875;SDS011;9570;50.854;13.778;2022-09-01T07:15:44;2.90;;;2.07;;
18875;SDS011;9570;50.854;13.778;2022-09-01T07:18:14;3.80;;;2.10;;
18875;SDS011;9570;50.854;13.778;2022-09-01T07:20:44;5.10;;;2.20;;
18875;SDS011;9570;50.854;13.778;2022-09-01T07:23:13;4.00;;;2.30;;
18875;SDS011;9570;50.854;13.778;2022-09-01T07:25:43;2.80;;;2.10;;
18875;SDS011;9570;50.854;13.778;2022-09-01T07:28:10;3.37;;;2.70;;
18875;SDS011;9570;50.854;13.778;2022-09-01T07:30:41;4.23;;;1.90;;
18875;SDS011;9570;50.854;13.778;2022-09-01T07:33:09;3.43;;;2.40;;
18875;SDS011;9570;50.854;13.778;2022-09-01T07:35:37;3.77;;;2.50;;
18875;SDS011;9570;50.854;13.778;2022-09-01T07:38:04;4.80;;;2.20;;
18875;SDS011;9570;50.854;13.778;2022-09-01T07:40:33;4.43;;;2.77;;
18875;SDS011;9570;50.854;13.778;2022-09-01T07:43:03;6.20;;;2.70;;
18875;SDS011;9570;50.854;13.778;2022-09-01T07:45:32;3.93;;;2.50;;
18875;SDS011;9570;50.854;13.778;2022-09-01T07:48:01;3.63;;;2.50;;
18875;SDS011;9570;50.854;13.778;2022-09-01T07:50:30;4.33;;;2.73;;
18875;SDS011;9570;50.854;13.778;2022-09-01T07:52:59;6.10;;;2.83;;
18875;SDS011;9570;50.854;13.778;2022-09-01T07:55:26;4.53;;;2.60;;
18875;SDS011;9570;50.854;13.778;2022-09-01T07:57:52;6.07;;;2.80;;
18875;SDS011;9570;50.854;13.778;2022-09-01T08:00:17;6.13;;;3.20;;
18875;SDS011;9570;50.854;13.778;2022-09-01T08:02:45;4.67;;;2.60;;
18875;SDS011;9570;50.854;13.778;2022-09-01T08:05:13;5.47;;;2.90;;
18875;SDS011;9570;50.854;13.778;2022-09-01T08:07:41;5.47;;;2.80;;
18875;SDS011;9570;50.854;13.778;2022-09-01T08:10:08;7.33;;;3.20;;
18875;SDS011;9570;50.854;13.778;2022-09-01T08:12:33;5.50;;;3.07;;
18875;SDS011;9570;50.854;13.778;2022-09-01T08:15:06;4.57;;;2.80;;
18875;SDS011;9570;50.854;13.778;2022-09-01T08:17:33;6.77;;;3.03;;
18875;SDS011;9570;50.854;13.778;2022-09-01T08:20:00;3.23;;;2.73;;
18875;SDS011;9570;50.854;13.778;2022-09-01T08:22:26;3.70;;;2.50;;
18875;SDS011;9570;50.854;13.778;2022-09-01T08:24:51;4.57;;;2.20;;
18875;SDS011;9570;50.854;13.778;2022-09-01T08:27:18;2.63;;;1.80;;
18875;SDS011;9570;50.854;13.778;2022-09-01T08:29:44;4.43;;;2.10;;
18875;SDS011;9570;50.854;13.778;2022-09-01T08:32:09;3.40;;;2.33;;
18875;SDS011;9570;50.854;13.778;2022-09-01T08:34:35;5.57;;;2.20;;
18875;SDS011;9570;50.854;13.778;2022-09-01T08:37:01;2.70;;;1.87;;
18875;SDS011;9570;50.854;13.778;2022-09-01T08:39:27;3.50;;;2.37;;
18875;SDS011;9570;50.854;13.778;2022-09-01T08:42:06;2.77;;;2.03;;
18875;SDS011;9570;50.854;13.778;2022-09-01T08:45:04;2.23;;;1.97;;
18875;SDS011;9570;50.854;13.778;2022-09-01T08:47:47;2.87;;;2.20;;
18875;SDS011;9570;50.854;13.778;2022-09-01T08:50:17;4.77;;;2.37;;
18875;SDS011;9570;50.854;13.778;2022-09-01T08:52:45;4.50;;;2.23;;
18875;SDS011;9570;50.854;13.778;2022-09-01T08:57:51;4.47;;;2.23;;
18875;SDS011;9570;50.854;13.778;2022-09-01T09:00:21;5.33;;;2.20;;
18875;SDS011;9570;50.854;13.778;2022-09-01T09:02:54;3.53;;;2.10;;
18875;SDS011;9570;50.854;13.778;2022-09-01T09:11:04;3.70;;;1.90;;
18875;SDS011;9570;50.854;13.778;2022-09-01T09:13:53;3.27;;;2.37;;
18875;SDS011;9570;50.854;13.778;2022-09-01T09:16:42;5.30;;;2.13;;
18875;SDS011;9570;50.854;13.778;2022-09-01T09:19:18;6.97;;;2.23;;
18875;SDS011;9570;50.854;13.778;2022-09-01T09:21:48;4.43;;;2.30;;
18875;SDS011;9570;50.854;13.778;2022-09-01T09:24:29;6.43;;;2.20;;
18875;SDS011;9570;50.854;13.778;2022-09-01T09:27:15;5.73;;;2.40;;
18875;SDS011;9570;50.854;13.778;2022-09-01T09:29:40;3.97;;;2.60;;
18875;SDS011;9570;50.854;13.778;2022-09-01T09:32:07;6.23;;;2.33;;
18875;SDS011;9570;50.854;13.778;2022-09-01T09:34:38;6.77;;;2.77;;
18875;SDS011;9570;50.854;13.778;2022-09-01T09:37:18;4.27;;;2.60;;
18875;SDS011;9570;50.854;13.778;2022-09-01T09:40:03;3.67;;;2.30;;
18875;SDS011;9570;50.854;13.778;2022-09-01T09:42:39;6.83;;;2.90;;
18875;SDS011;9570;50.854;13.778;2022-09-01T09:45:26;6.00;;;2.67;;
18875;SDS011;9570;50.854;13.778;2022-09-01T09:47:55;7.17;;;2.83;;
18875;SDS011;9570;50.854;13.778;2022-09-01T09:50:29;4.93;;;2.40;;
18875;SDS011;9570;50.854;13.778;2022-09-01T09:56:01;5.20;;;2.40;;
18875;SDS011;9570;50.854;13.778;2022-09-01T09:58:37;2.83;;;2.13;;
18875;SDS011;9570;50.854;13.778;2022-09-01T10:01:11;5.17;;;2.10;;
18875;SDS011;9570;50.854;13.778;2022-09-01T10:03:47;2.10;;;1.83;;
18875;SDS011;9570;50.854;13.778;2022-09-01T10:06:28;5.03;;;1.80;;
18875;SDS011;9570;50.854;13.778;2022-09-01T10:09:13;7.40;;;2.00;;
18875;SDS011;9570;50.854;13.778;2022-09-01T10:11:59;5.00;;;2.13;;
18875;SDS011;9570;50.854;13.778;2022-09-01T10:14:43;4.57;;;2.23;;
18875;SDS011;9570;50.854;13.778;2022-09-01T10:17:15;3.23;;;2.00;;
18875;SDS011;9570;50.854;13.778;2022-09-01T10:19:50;5.37;;;1.90;;
18875;SDS011;9570;50.854;13.778;2022-09-01T10:22:22;5.17;;;2.50;;
18875;SDS011;9570;50.854;13.778;2022-09-01T10:24:49;3.37;;;2.13;;
18875;SDS011;9570;50.854;13.778;2022-09-01T10:27:17;3.83;;;2.43;;
18875;SDS011;9570;50.854;13.778;2022-09-01T10:29:47;4.00;;;1.97;;
18875;SDS011;9570;50.854;13.778;2022-09-01T10:32:23;2.33;;;1.43;;
18875;SDS011;9570;50.854;13.778;2022-09-01T10:34:53;4.37;;;1.73;;
18875;SDS011;9570;50.854;13.778;2022-09-01T10:37:19;4.30;;;1.50;;
18875;SDS011;9570;50.854;13.778;2022-09-01T10:42:40;2.20;;;1.70;;
18875;SDS011;9570;50.854;13.778;2022-09-01T10:53:40;2.47;;;1.40;;
18875;SDS011;9570;50.854;13.778;2022-09-01T11:06:57;4.23;;;2.00;;
18875;SDS011;9570;50.854;13.778;2022-09-01T11:09:37;2.07;;;1.30;;
18875;SDS011;9570;50.854;13.778;2022-09-01T11:12:09;3.20;;;1.47;;
18875;SDS011;9570;50.854;13.778;2022-09-01T11:14:59;1.70;;;1.20;;
18875;SDS011;9570;50.854;13.778;2022-09-01T11:20:11;2.47;;;1.43;;
18875;SDS011;9570;50.854;13.778;2022-09-01T11:39:06;1.90;;;1.37;;
18875;SDS011;9570;50.854;13.778;2022-09-01T11:41:44;2.63;;;1.60;;
18875;SDS011;9570;50.854;13.778;2022-09-01T11:44:25;2.53;;;1.20;;
18875;SDS011;9570;50.854;13.778;2022-09-01T11:46:59;1.90;;;1.20;;
18875;SDS011;9570;50.854;13.778;2022-09-01T11:49:36;4.53;;;1.30;;
18875;SDS011;9570;50.854;13.778;2022-09-01T11:52:04;2.90;;;1.20;;
18875;SDS011;9570;50.854;13.778;2022-09-01T11:54:38;2.70;;;1.10;;
18875;SDS011;9570;50.854;13.778;2022-09-01T11:57:15;2.60;;;1.50;;
18875;SDS011;9570;50.854;13.778;2022-09-01T11:59:52;3.90;;;1.30;;
18875;SDS011;9570;50.854;13.778;2022-09-01T12:02:20;2.17;;;1.30;;
18875;SDS011;9570;50.854;13.778;2022-09-01T12:04:49;2.40;;;1.10;;
18875;SDS011;9570;50.854;13.778;2022-09-01T12:07:26;3.77;;;1.17;;
18875;SDS011;9570;50.854;13.778;2022-09-01T12:10:02;2.87;;;1.47;;
18875;SDS011;9570;50.854;13.778;2022-09-01T12:12:35;1.60;;;1.10;;
18875;SDS011;9570;50.854;13.778;2022-09-01T12:17:33;1.30;;;1.20;;
18875;SDS011;9570;50.854;13.778;2022-09-01T12:22:47;2.70;;;1.33;;
18875;SDS011;9570;50.854;13.778;2022-09-01T12:25:26;2.10;;;1.33;;
18875;SDS011;9570;50.854;13.778;2022-09-01T12:28:02;3.33;;;1.60;;
18875;SDS011;9570;50.854;13.778;2022-09-01T12:30:30;2.57;;;1.30;;
18875;SDS011;9570;50.854;13.778;2022-09-01T12:32:59;5.23;;;1.33;;
18875;SDS011;9570;50.854;13.778;2022-09-01T12:35:27;1.63;;;1.43;;
18875;SDS011;9570;50.854;13.778;2022-09-01T12:38:14;3.00;;;1.37;;
18875;SDS011;9570;50.854;13.778;2022-09-01T12:40:48;2.33;;;1.03;;
18875;SDS011;9570;50.854;13.778;2022-09-01T12:43:28;2.07;;;1.40;;
18875;SDS011;9570;50.854;13.778;2022-09-01T12:45:55;1.07;;;0.90;;
18875;SDS011;9570;50.854;13.778;2022-09-01T12:48:28;1.97;;;1.23;;
18875;SDS011;9570;50.854;13.778;2022-09-01T12:50:54;2.37;;;1.30;;
18875;SDS011;9570;50.854;13.778;2022-09-01T12:53:23;2.07;;;1.40;;
18875;SDS011;9570;50.854;13.778;2022-09-01T12:56:52;1.83;;;1.30;;
18875;SDS011;9570;50.854;13.778;2022-09-01T12:58:51;1.70;;;1.20;;
18875;SDS011;9570;50.854;13.778;2022-09-01T13:01:36;1.83;;;1.20;;
18875;SDS011;9570;50.854;13.778;2022-09-01T13:04:23;2.60;;;1.20;;
18875;SDS011;9570;50.854;13.778;2022-09-01T13:07:00;3.70;;;1.30;;
18875;SDS011;9570;50.854;13.778;2022-09-01T13:09:28;1.40;;;1.30;;
18875;SDS011;9570;50.854;13.778;2022-09-01T13:12:07;1.57;;;0.90;;
18875;SDS011;9570;50.854;13.778;2022-09-01T13:14:34;1.50;;;1.30;;
18875;SDS011;9570;50.854;13.778;2022-09-01T13:16:59;2.20;;;1.10;;
18875;SDS011;9570;50.854;13.778;2022-09-01T13:19:25;1.67;;;1.30;;
18875;SDS011;9570;50.854;13.778;2022-09-01T13:21:50;1.97;;;1.30;;
18875;SDS011;9570;50.854;13.778;2022-09-01T13:24:16;3.87;;;1.47;;
18875;SDS011;9570;50.854;13.778;2022-09-01T13:26:42;1.80;;;1.30;;
18875;SDS011;9570;50.854;13.778;2022-09-01T13:29:10;3.30;;;1.20;;
18875;SDS011;9570;50.854;13.778;2022-09-01T13:31:35;1.40;;;1.30;;
18875;SDS011;9570;50.854;13.778;2022-09-01T13:34:01;4.17;;;1.40;;
18875;SDS011;9570;50.854;13.778;2022-09-01T13:36:26;3.07;;;1.37;;
18875;SDS011;9570;50.854;13.778;2022-09-01T13:38:52;1.70;;;1.33;;
18875;SDS011;9570;50.854;13.778;2022-09-01T13:41:17;8.27;;;1.50;;
18875;SDS011;9570;50.854;13.778;2022-09-01T13:43:43;1.97;;;1.30;;
18875;SDS011;9570;50.854;13.778;2022-09-01T13:46:08;5.43;;;1.63;;
18875;SDS011;9570;50.854;13.778;2022-09-01T13:48:34;2.30;;;1.17;;
18875;SDS011;9570;50.854;13.778;2022-09-01T13:51:00;3.20;;;1.40;;
18875;SDS011;9570;50.854;13.778;2022-09-01T13:53:26;2.83;;;1.23;;
18875;SDS011;9570;50.854;13.778;2022-09-01T13:55:51;4.33;;;1.20;;
18875;SDS011;9570;50.854;13.778;2022-09-01T13:58:17;3.23;;;1.70;;
18875;SDS011;9570;50.854;13.778;2022-09-01T14:00:44;2.33;;;1.40;;
18875;SDS011;9570;50.854;13.778;2022-09-01T14:03:12;1.20;;;1.10;;
18875;SDS011;9570;50.854;13.778;2022-09-01T14:05:42;3.47;;;1.20;;
18875;SDS011;9570;50.854;13.778;2022-09-01T14:08:10;4.40;;;1.27;;
18875;SDS011;9570;50.854;13.778;2022-09-01T14:10:38;1.80;;;1.30;;
18875;SDS011;9570;50.854;13.778;2022-09-01T14:13:06;4.10;;;1.27;;
18875;SDS011;9570;50.854;13.778;2022-09-01T14:15:33;2.63;;;1.47;;
18875;SDS011;9570;50.854;13.778;2022-09-01T14:17:59;1.77;;;1.10;;
18875;SDS011;9570;50.854;13.778;2022-09-01T14:20:26;2.60;;;1.27;;
18875;SDS011;9570;50.854;13.778;2022-09-01T14:22:55;2.00;;;1.33;;
18875;SDS011;9570;50.854;13.778;2022-09-01T14:25:21;1.70;;;1.30;;
18875;SDS011;9570;50.854;13.778;2022-09-01T14:27:47;1.17;;;1.07;;
18875;SDS011;9570;50.854;13.778;2022-09-01T14:30:15;1.97;;;1.30;;
18875;SDS011;9570;50.854;13.778;2022-09-01T14:32:44;3.00;;;1.33;;
18875;SDS011;9570;50.854;13.778;2022-09-01T14:35:10;1.77;;;1.00;;
18875;SDS011;9570;50.854;13.778;2022-09-01T14:37:36;2.17;;;1.47;;
18875;SDS011;9570;50.854;13.778;2022-09-01T14:40:02;2.93;;;1.00;;
18875;SDS011;9570;50.854;13.778;2022-09-01T14:42:30;2.43;;;1.10;;
18875;SDS011;9570;50.854;13.778;2022-09-01T14:44:56;2.30;;;0.90;;
18875;SDS011;9570;50.854;13.778;2022-09-01T14:47:22;2.80;;;1.00;;
18875;SDS011;9570;50.854;13.778;2022-09-01T14:49:49;3.33;;;1.20;;
18875;SDS011;9570;50.854;13.778;2022-09-01T14:52:16;1.93;;;1.20;;
18875;SDS011;9570;50.854;13.778;2022-09-01T14:54:42;1.27;;;0.90;;
18875;SDS011;9570;50.854;13.778;2022-09-01T14:57:07;1.90;;;1.23;;
18875;SDS011;9570;50.854;13.778;2022-09-01T14:59:33;1.53;;;1.20;;
18875;SDS011;9570;50.854;13.778;2022-09-01T15:01:59;1.60;;;1.10;;
18875;SDS011;9570;50.854;13.778;2022-09-01T15:04:25;2.67;;;1.20;;
18875;SDS011;9570;50.854;13.778;2022-09-01T15:06:52;3.20;;;1.20;;
18875;SDS011;9570;50.854;13.778;2022-09-01T15:09:18;2.60;;;1.20;;
18875;SDS011;9570;50.854;13.778;2022-09-01T15:11:43;3.63;;;1.47;;
18875;SDS011;9570;50.854;13.778;2022-09-01T15:14:09;1.83;;;1.00;;
18875;SDS011;9570;50.854;13.778;2022-09-01T15:16:34;1.53;;;1.20;;
18875;SDS011;9570;50.854;13.778;2022-09-01T15:19:04;1.60;;;1.23;;
18875;SDS011;9570;50.854;13.778;2022-09-01T15:21:32;2.97;;;1.30;;
18875;SDS011;9570;50.854;13.778;2022-09-01T15:23:58;2.67;;;1.40;;
18875;SDS011;9570;50.854;13.778;2022-09-01T15:26:25;1.50;;;1.20;;
18875;SDS011;9570;50.854;13.778;2022-09-01T15:28:51;3.43;;;1.20;;
18875;SDS011;9570;50.854;13.778;2022-09-01T15:31:18;2.03;;;1.23;;
18875;SDS011;9570;50.854;13.778;2022-09-01T15:33:45;3.57;;;1.40;;
18875;SDS011;9570;50.854;13.778;2022-09-01T15:36:15;2.63;;;1.30;;
18875;SDS011;9570;50.854;13.778;2022-09-01T15:38:43;2.07;;;1.30;;
18875;SDS011;9570;50.854;13.778;2022-09-01T15:41:14;3.57;;;1.50;;
18875;SDS011;9570;50.854;13.778;2022-09-01T15:43:46;2.00;;;1.10;;
18875;SDS011;9570;50.854;13.778;2022-09-01T15:46:12;2.53;;;1.30;;
18875;SDS011;9570;50.854;13.778;2022-09-01T15:48:39;2.40;;;1.20;;
18875;SDS011;9570;50.854;13.778;2022-09-01T15:53:46;1.70;;;1.20;;
18875;SDS011;9570;50.854;13.778;2022-09-01T15:56:12;2.23;;;1.10;;
18875;SDS011;9570;50.854;13.778;2022-09-01T15:58:38;3.30;;;1.43;;
18875;SDS011;9570;50.854;13.778;2022-09-01T16:01:03;4.80;;;1.20;;
18875;SDS011;9570;50.854;13.778;2022-09-01T16:03:29;2.90;;;1.50;;
18875;SDS011;9570;50.854;13.778;2022-09-01T16:05:55;3.27;;;1.37;;